createdAt,value
2023-05-05T00:01:47.603Z,100933.72
2023-05-05T00:04:20.951Z,100918.22
2023-05-05T00:06:52.576Z,100930.25
2023-05-05T00:09:23.082Z,100928.53
2023-05-05T00:12:00.714Z,100914.78
2023-05-05T00:14:30.547Z,100932.81
2023-05-05T00:16:59.327Z,100899.28
2023-05-05T00:19:28.200Z,100937.03
2023-05-05T00:21:58.173Z,100928.38
2023-05-05T00:24:27.011Z,100928.38
2023-05-05T00:26:55.751Z,100930.13
2023-05-05T00:29:23.882Z,100930.06
2023-05-05T00:31:56.716Z,100929.19
2023-05-05T00:34:25.446Z,100927.44
2023-05-05T00:36:53.584Z,100923.97
2023-05-05T00:39:23.621Z,100942.03
2023-05-05T00:41:51.964Z,100934.28
2023-05-05T00:44:35.965Z,100926.56
2023-05-05T00:47:06.647Z,100925.78
2023-05-05T00:49:41.472Z,100917.19
2023-05-05T00:52:12.627Z,100903.44
2023-05-05T00:54:49.091Z,100946.50
2023-05-05T00:57:18.503Z,100934.41
2023-05-05T00:59:54.204Z,100928.44
2023-05-05T01:02:24.715Z,100934.44
2023-05-05T01:04:56.230Z,100927.56
2023-05-05T01:07:34.592Z,100939.63
2023-05-05T01:10:20.734Z,100928.44
2023-05-05T01:12:55.467Z,100930.16
2023-05-05T01:15:33.332Z,100929.25
2023-05-05T01:18:09.033Z,100921.53
2023-05-05T01:20:50.417Z,100919.78
2023-05-05T01:23:35.973Z,100904.31
2023-05-05T01:26:22.866Z,100896.63
2023-05-05T01:29:24.087Z,100920.72
2023-05-05T01:31:57.476Z,100921.59
2023-05-05T01:34:32.576Z,100925.94
2023-05-05T01:37:11.594Z,100913.88
2023-05-05T01:39:42.815Z,100923.41
2023-05-05T01:42:15.174Z,100926.03
2023-05-05T01:44:45.409Z,100912.31
2023-05-05T01:47:22.429Z,100905.50
2023-05-05T01:49:53.660Z,100902.97
2023-05-05T01:52:23.947Z,100909.84
2023-05-05T01:54:57.653Z,100884.97
2023-05-05T01:57:31.408Z,100898.69
2023-05-05T02:00:03.380Z,100913.31
2023-05-05T02:02:34.982Z,100909.00
2023-05-05T02:05:04.782Z,100892.69
2023-05-05T02:07:36.545Z,100901.31
2023-05-05T02:10:10.174Z,100916.81
2023-05-05T02:12:42.220Z,100906.47
2023-05-05T02:15:12.628Z,100904.75
2023-05-05T02:17:45.172Z,100900.47
2023-05-05T02:20:16.612Z,100897.03
2023-05-05T02:22:46.176Z,100902.16
2023-05-05T02:25:17.900Z,100907.34
2023-05-05T02:27:53.933Z,100896.19
2023-05-05T02:30:24.630Z,100900.44
2023-05-05T02:33:01.436Z,100896.13
2023-05-05T02:35:37.118Z,100888.38
2023-05-05T02:38:07.860Z,100891.78
2023-05-05T02:40:36.985Z,100880.66
2023-05-05T02:43:09.391Z,100868.59
2023-05-05T02:45:37.813Z,100884.88
2023-05-05T02:48:08.374Z,100896.91
2023-05-05T02:50:39.488Z,100887.44
2023-05-05T02:53:07.985Z,100879.66
2023-05-05T02:55:45.671Z,100884.84
2023-05-05T02:58:23.888Z,100867.66
2023-05-05T03:01:00.988Z,100887.41
2023-05-05T03:03:41.939Z,100883.06
2023-05-05T03:06:16.504Z,100862.50
2023-05-05T03:08:55.493Z,100877.03
2023-05-05T03:11:29.770Z,100872.72
2023-05-05T03:14:08.904Z,100870.09
2023-05-05T03:16:40.563Z,100867.50
2023-05-05T03:19:13.277Z,100872.63
2023-05-05T03:21:45.240Z,100877.75
2023-05-05T03:24:17.305Z,100876.00
2023-05-05T03:26:46.874Z,100879.44
2023-05-05T03:29:16.892Z,100882.00
2023-05-05T03:31:46.238Z,100874.28
2023-05-05T03:34:18.471Z,100857.94
2023-05-05T03:36:47.408Z,100877.72
2023-05-05T03:39:19.005Z,100872.56
2023-05-05T03:41:51.301Z,100867.44
2023-05-05T03:44:21.027Z,100863.97
2023-05-05T03:46:49.611Z,100862.19
2023-05-05T03:49:19.480Z,100883.72
2023-05-05T03:51:48.994Z,100859.66
2023-05-05T03:54:18.592Z,100883.63
2023-05-05T03:56:47.365Z,100880.16
2023-05-05T03:59:17.384Z,100860.41
2023-05-05T04:01:47.081Z,100882.69
2023-05-05T04:04:16.231Z,100889.59
2023-05-05T04:06:46.329Z,100884.38
2023-05-05T04:09:15.523Z,100869.69
2023-05-05T04:11:45.717Z,100873.03
2023-05-05T04:14:14.454Z,100877.28
2023-05-05T04:16:46.801Z,100879.94
2023-05-05T04:19:18.939Z,100885.06
2023-05-05T04:21:53.401Z,100892.81
2023-05-05T04:24:25.247Z,100896.25
2023-05-05T04:26:54.237Z,100879.88
2023-05-05T04:29:23.735Z,100915.06
2023-05-05T04:31:53.965Z,100924.50
2023-05-05T04:34:23.487Z,100932.25
2023-05-05T04:36:53.606Z,100921.00
2023-05-05T04:39:22.766Z,100925.28
2023-05-05T04:41:51.850Z,100939.88
2023-05-05T04:44:20.701Z,100937.22
2023-05-05T04:46:49.683Z,100920.09
2023-05-05T04:49:18.276Z,100934.91
2023-05-05T04:51:48.362Z,100954.72
2023-05-05T04:54:19.012Z,100952.16
2023-05-05T04:56:49.939Z,100929.97
2023-05-05T04:59:21.308Z,100954.16
2023-05-05T05:01:51.028Z,100974.03
2023-05-05T05:04:22.863Z,100930.13
2023-05-05T05:06:53.882Z,100949.06
2023-05-05T05:09:25.734Z,100954.97
2023-05-05T05:11:57.927Z,100967.94
2023-05-05T05:14:28.179Z,100963.72
2023-05-05T05:16:58.364Z,100939.78
2023-05-05T05:19:26.609Z,100972.50
2023-05-05T05:21:58.393Z,100968.25
2023-05-05T05:24:28.115Z,100969.94
2023-05-05T05:26:56.589Z,100965.56
2023-05-05T05:29:25.289Z,100969.88
2023-05-05T05:31:55.976Z,100941.47
2023-05-05T05:34:24.825Z,100965.47
2023-05-05T05:37:00.690Z,100982.50
2023-05-05T05:39:31.700Z,100956.25
2023-05-05T05:42:00.693Z,100928.28
2023-05-05T05:44:29.194Z,100952.19
2023-05-05T05:46:57.926Z,100960.16
2023-05-05T05:49:30.363Z,100956.56
2023-05-05T05:51:58.927Z,100955.59
2023-05-05T05:54:27.317Z,100957.16
2023-05-05T05:57:00.408Z,100949.19
2023-05-05T05:59:30.734Z,100942.16
2023-05-05T06:02:01.643Z,100930.16
2023-05-05T06:04:31.787Z,100944.00
2023-05-05T06:07:01.803Z,100937.31
2023-05-05T06:09:33.030Z,100944.25
2023-05-05T06:12:12.297Z,100952.16
2023-05-05T06:14:43.187Z,100959.06
2023-05-05T06:17:12.672Z,100947.31
2023-05-05T06:19:43.054Z,100938.06
2023-05-05T06:22:11.836Z,100929.72
2023-05-05T06:24:44.100Z,100946.22
2023-05-05T06:27:15.825Z,100938.53
2023-05-05T06:29:50.179Z,100950.75
2023-05-05T06:32:18.571Z,100943.69
2023-05-05T06:34:48.985Z,100948.94
2023-05-05T06:37:21.699Z,100932.53
2023-05-05T06:39:49.870Z,100948.94
2023-05-05T06:42:20.055Z,100946.09
2023-05-05T06:44:48.571Z,100952.44
2023-05-05T06:47:17.970Z,100954.22
2023-05-05T06:49:56.945Z,100958.91
2023-05-05T06:52:26.657Z,100963.03
2023-05-05T06:54:57.749Z,100945.41
2023-05-05T06:57:27.556Z,100958.19
2023-05-05T06:59:57.118Z,100939.97
2023-05-05T07:02:27.465Z,100951.47
2023-05-05T07:05:00.902Z,100967.72
2023-05-05T07:07:32.576Z,100950.03
2023-05-05T07:10:08.698Z,100959.91
2023-05-05T07:12:50.882Z,100960.22
2023-05-05T07:15:28.654Z,100960.66
2023-05-05T07:18:03.494Z,100933.09
2023-05-05T07:20:33.789Z,100950.13
2023-05-05T07:23:05.570Z,100960.13
2023-05-05T07:25:34.095Z,100956.50
2023-05-05T07:28:06.526Z,100973.41
2023-05-05T07:30:35.155Z,100956.19
2023-05-05T07:33:09.110Z,100966.19
2023-05-05T07:35:40.626Z,100956.34
2023-05-05T07:38:11.160Z,100967.34
2023-05-05T07:40:39.850Z,100966.75
2023-05-05T07:43:12.416Z,100982.19
2023-05-05T07:45:47.950Z,100981.34
2023-05-05T07:48:28.655Z,100963.56
2023-05-05T07:50:58.808Z,100963.41
2023-05-05T07:53:27.235Z,100984.72
2023-05-05T07:55:58.288Z,100982.75
2023-05-05T07:58:28.294Z,100973.69
2023-05-05T08:00:57.385Z,100949.16
2023-05-05T08:03:26.977Z,100957.44
2023-05-05T08:05:57.353Z,100972.22
2023-05-05T08:08:27.606Z,100965.72
2023-05-05T08:10:58.428Z,100971.44
2023-05-05T08:13:32.039Z,100963.94
2023-05-05T08:16:07.076Z,100972.22
2023-05-05T08:18:40.898Z,100984.84
2023-05-05T08:21:10.697Z,100991.94
2023-05-05T08:23:40.159Z,100992.06
2023-05-05T08:26:10.715Z,100988.94
2023-05-05T08:28:40.918Z,100991.16
2023-05-05T08:31:09.593Z,100993.75
2023-05-05T08:33:43.395Z,100998.88
2023-05-05T08:36:19.746Z,100999.63
2023-05-05T08:38:50.157Z,100980.56
2023-05-05T08:41:21.512Z,100963.78
2023-05-05T08:43:53.406Z,100977.84
2023-05-05T08:46:23.540Z,100999.56
2023-05-05T08:48:57.966Z,100984.53
2023-05-05T08:51:34.047Z,100981.41
2023-05-05T08:54:06.440Z,100977.22
2023-05-05T08:56:42.737Z,100987.69
2023-05-05T08:59:17.438Z,100978.72
2023-05-05T09:01:48.958Z,101017.41
2023-05-05T09:04:26.933Z,101002.78
2023-05-05T09:07:01.130Z,100986.22
2023-05-05T09:09:33.608Z,100963.41
2023-05-05T09:12:03.647Z,100966.91
2023-05-05T09:14:34.754Z,100977.06
2023-05-05T09:17:07.424Z,101008.75
2023-05-05T09:19:59.227Z,100990.56
2023-05-05T09:22:37.121Z,100988.44
2023-05-05T09:25:07.259Z,100996.03
2023-05-05T09:27:43.528Z,100964.47
2023-05-05T09:30:17.744Z,100983.38
2023-05-05T09:32:49.688Z,100988.06
2023-05-05T09:35:20.398Z,100981.06
2023-05-05T09:37:50.104Z,101000.09
2023-05-05T09:40:20.541Z,100980.84
2023-05-05T09:42:50.176Z,100958.34
2023-05-05T09:45:31.315Z,100976.16
2023-05-05T09:48:09.239Z,101001.97
2023-05-05T09:50:44.825Z,100998.53
2023-05-05T09:53:14.258Z,100992.91
2023-05-05T09:55:54.575Z,100975.16
2023-05-05T09:58:26.285Z,100973.16
2023-05-05T10:01:02.212Z,100988.78
2023-05-05T10:03:31.680Z,100982.31
2023-05-05T10:06:04.869Z,100984.84
2023-05-05T10:08:34.760Z,100966.91
2023-05-05T10:11:13.117Z,100981.41
2023-05-05T10:13:49.595Z,100939.38
2023-05-05T10:16:21.085Z,100990.25
2023-05-05T10:18:50.429Z,100962.44
2023-05-05T10:21:23.032Z,100975.66
2023-05-05T10:24:00.934Z,100978.66
2023-05-05T10:26:35.330Z,100971.50
2023-05-05T10:29:08.793Z,100984.16
2023-05-05T10:31:47.898Z,100975.78
2023-05-05T10:34:24.875Z,100967.97
2023-05-05T10:36:53.732Z,100982.41
2023-05-05T10:39:23.984Z,100968.03
2023-05-05T10:41:56.941Z,100971.72
2023-05-05T10:44:29.488Z,100972.72
2023-05-05T10:47:06.440Z,100944.16
2023-05-05T10:49:42.881Z,100932.84
2023-05-05T10:52:19.670Z,100954.44
2023-05-05T10:54:59.680Z,100982.13
2023-05-05T10:57:31.098Z,100988.16
2023-05-05T10:59:59.961Z,100980.13
2023-05-05T11:02:31.769Z,100979.63
2023-05-05T11:05:18.413Z,100984.31
2023-05-05T11:07:53.811Z,100965.47
2023-05-05T11:10:23.485Z,100978.53
2023-05-05T11:13:27.566Z,100963.19
2023-05-05T11:15:58.157Z,100959.97
2023-05-05T11:18:38.606Z,100980.78
2023-05-05T11:21:19.808Z,100980.84
2023-05-05T11:23:53.982Z,100987.91
2023-05-05T11:26:52.529Z,100983.63
2023-05-05T11:29:22.167Z,100974.94
2023-05-05T11:32:17.542Z,100999.78
2023-05-05T11:34:51.778Z,100983.66
2023-05-05T11:37:24.500Z,100983.56
2023-05-05T11:40:03.851Z,100960.38
2023-05-05T11:42:32.080Z,101004.22
2023-05-05T11:45:01.498Z,100987.53
2023-05-05T11:47:32.145Z,100995.78
2023-05-05T11:50:21.742Z,100996.13
2023-05-05T11:52:50.735Z,100989.44
2023-05-05T11:55:27.345Z,100983.00
2023-05-05T11:57:55.516Z,101001.34
2023-05-05T12:00:34.610Z,100995.34
2023-05-05T12:03:03.228Z,100983.78
2023-05-05T12:05:36.297Z,100982.59
2023-05-05T12:08:05.355Z,100988.66
2023-05-05T12:10:34.427Z,100990.28
2023-05-05T12:13:02.557Z,100985.91
2023-05-05T12:15:32.328Z,100984.72
2023-05-05T12:18:03.029Z,100989.19
2023-05-05T12:20:39.446Z,100981.03
2023-05-05T12:23:08.656Z,100982.28
2023-05-05T12:25:39.332Z,100979.06
2023-05-05T12:28:09.795Z,100984.72
2023-05-05T12:30:38.619Z,100980.31
2023-05-05T12:33:09.642Z,100975.66
2023-05-05T12:35:43.428Z,100968.44
2023-05-05T12:38:19.724Z,100970.47
2023-05-05T12:40:53.290Z,100970.63
2023-05-05T12:43:32.805Z,100987.91
2023-05-05T12:46:08.353Z,100991.28
2023-05-05T12:48:39.242Z,100983.53
2023-05-05T12:51:20.349Z,100984.38
2023-05-05T12:53:50.471Z,100992.03
2023-05-05T12:56:39.403Z,100987.97
2023-05-05T12:59:09.053Z,100993.31
2023-05-05T13:01:46.181Z,100988.75
2023-05-05T13:04:18.268Z,100988.56
2023-05-05T13:06:54.465Z,100986.22
2023-05-05T13:09:27.480Z,100996.13
2023-05-05T13:11:55.902Z,101001.53
2023-05-05T13:14:25.158Z,101010.34
2023-05-05T13:16:54.745Z,101006.97
2023-05-05T13:19:23.963Z,101006.56
2023-05-05T13:21:54.007Z,101009.59
2023-05-05T13:24:28.658Z,100995.47
2023-05-05T13:27:04.646Z,100993.84
2023-05-05T13:29:34.557Z,100994.03
2023-05-05T13:32:03.341Z,100980.41
2023-05-05T13:34:32.764Z,100989.00
2023-05-05T13:37:06.999Z,100976.22
2023-05-05T13:39:37.242Z,100993.34
2023-05-05T13:42:06.291Z,100986.03
2023-05-05T13:44:35.733Z,100990.31
2023-05-05T13:47:05.323Z,100984.13
2023-05-05T13:49:35.794Z,100972.94
2023-05-05T13:52:10.112Z,100996.25
2023-05-05T13:54:40.045Z,100977.72
2023-05-05T13:57:11.468Z,100990.25
2023-05-05T13:59:40.954Z,100987.09
2023-05-05T14:02:14.626Z,100984.69
2023-05-05T14:04:43.112Z,100973.78
2023-05-05T14:07:12.729Z,100977.78
2023-05-05T14:09:41.798Z,100991.72
2023-05-05T14:12:11.508Z,100984.13
2023-05-05T14:14:40.126Z,100977.38
2023-05-05T14:17:08.578Z,100978.34
2023-05-05T14:19:37.465Z,100981.84
2023-05-05T14:22:09.744Z,100980.09
2023-05-05T14:24:45.912Z,100991.25
2023-05-05T14:27:16.232Z,100987.78
2023-05-05T14:29:46.553Z,100987.19
2023-05-05T14:32:17.270Z,100987.22
2023-05-05T14:34:50.165Z,100987.34
2023-05-05T14:37:20.558Z,100988.31
2023-05-05T14:39:53.529Z,100978.38
2023-05-05T14:42:22.642Z,100975.25
2023-05-05T14:44:54.144Z,100973.66
2023-05-05T14:47:22.976Z,100996.09
2023-05-05T14:49:53.189Z,100989.94
2023-05-05T14:52:23.973Z,100988.22
2023-05-05T14:54:56.313Z,100992.59
2023-05-05T14:57:24.544Z,100990.91
2023-05-05T14:59:55.286Z,100988.31
2023-05-05T15:02:24.155Z,100992.66
2023-05-05T15:04:53.298Z,101003.03
2023-05-05T15:07:22.978Z,101011.75
2023-05-05T15:09:53.190Z,100998.88
2023-05-05T15:12:23.308Z,100996.41
2023-05-05T15:14:51.678Z,100974.94
2023-05-05T15:17:28.666Z,100967.22
2023-05-05T15:19:57.135Z,101002.38
2023-05-05T15:25:21.889Z,100977.53
2023-05-05T15:27:55.171Z,100983.69
2023-05-05T15:30:25.882Z,100989.81
2023-05-05T15:32:56.764Z,100991.63
2023-05-05T15:35:25.844Z,101011.47
2023-05-05T15:37:55.641Z,101015.81
2023-05-05T15:40:26.075Z,100997.72
2023-05-05T15:43:00.689Z,101000.28
2023-05-05T15:45:38.893Z,101009.78
2023-05-05T15:48:11.032Z,101011.50
2023-05-05T15:50:42.848Z,100995.22
2023-05-05T15:53:12.668Z,101003.94
2023-05-05T15:55:44.634Z,100964.41
2023-05-05T15:58:15.220Z,101003.91
2023-05-05T16:00:47.215Z,100986.69
2023-05-05T16:03:17.047Z,100986.75
2023-05-05T16:05:50.634Z,101009.25
2023-05-05T16:08:22.211Z,101004.88
2023-05-05T16:10:53.339Z,101005.63
2023-05-05T16:13:24.600Z,100995.28
2023-05-05T16:15:59.130Z,101002.13
2023-05-05T16:18:31.277Z,100999.59
2023-05-05T16:21:07.383Z,101003.16
2023-05-05T16:23:39.164Z,101003.22
2023-05-05T16:26:15.119Z,100974.91
2023-05-05T16:28:45.491Z,100988.78
2023-05-05T16:31:40.733Z,100998.34
2023-05-05T16:34:09.023Z,101013.91
2023-05-05T16:36:39.154Z,101018.31
2023-05-05T16:39:08.866Z,101004.56
2023-05-05T16:41:37.061Z,101006.31
2023-05-05T16:44:07.113Z,101019.31
2023-05-05T16:46:39.509Z,101000.34
2023-05-05T16:49:09.212Z,100995.22
2023-05-05T16:51:37.852Z,101003.06
2023-05-05T16:54:06.585Z,100997.16
2023-05-05T16:56:36.702Z,100998.06
2023-05-05T16:59:07.402Z,101006.69
2023-05-05T17:01:38.051Z,100996.34
2023-05-05T17:04:08.472Z,100992.94
2023-05-05T17:06:39.810Z,101001.53
2023-05-05T17:09:11.375Z,100997.25
2023-05-05T17:11:40.224Z,100992.09
2023-05-05T17:14:11.930Z,101001.56
2023-05-05T17:16:40.558Z,101015.38
2023-05-05T17:19:13.686Z,101011.97
2023-05-05T17:21:43.497Z,101008.56
2023-05-05T17:24:15.232Z,100989.63
2023-05-05T17:26:43.454Z,101012.06
2023-05-05T17:29:15.693Z,101023.28
2023-05-05T17:31:47.661Z,101016.47
2023-05-05T17:34:25.266Z,101019.09
2023-05-05T17:37:00.774Z,101019.06
2023-05-05T17:39:30.105Z,101019.13
2023-05-05T17:42:08.866Z,101020.84
2023-05-05T17:44:44.077Z,101013.19
2023-05-05T17:47:14.776Z,101016.59
2023-05-05T17:49:43.696Z,100997.75
2023-05-05T17:52:13.091Z,101033.88
2023-05-05T17:54:46.706Z,101015.84
2023-05-05T17:57:18.331Z,101030.47
2023-05-05T17:59:49.708Z,101017.59
2023-05-05T18:02:20.365Z,101040.00
2023-05-05T18:04:50.772Z,101050.34
2023-05-05T18:07:37.761Z,101015.13
2023-05-05T18:10:16.848Z,101045.19
2023-05-05T18:12:57.795Z,101046.06
2023-05-05T18:15:28.092Z,101047.84
2023-05-05T18:18:05.162Z,101036.69
2023-05-05T18:20:39.846Z,101056.44
2023-05-05T18:23:08.633Z,101060.78
2023-05-05T18:25:37.181Z,101057.34
2023-05-05T18:28:11.327Z,101067.69
2023-05-05T18:30:41.786Z,101073.69
2023-05-05T18:33:12.292Z,101062.53
2023-05-05T18:35:41.014Z,101071.13
2023-05-05T18:38:17.712Z,101084.06
2023-05-05T18:43:48.885Z,101052.16
2023-05-05T18:46:21.052Z,101079.75
2023-05-05T18:48:51.172Z,101014.31
2023-05-05T18:51:32.374Z,101070.28
2023-05-05T18:54:01.335Z,101067.69
2023-05-05T18:56:30.585Z,101060.78
2023-05-05T18:59:00.550Z,101067.69
2023-05-05T19:01:31.157Z,101071.09
2023-05-05T19:04:18.761Z,101077.13
2023-05-05T19:06:52.531Z,101074.53
2023-05-05T19:09:23.774Z,101073.69
2023-05-05T19:11:51.739Z,101067.66
2023-05-05T19:14:24.123Z,101061.59
2023-05-05T19:17:04.322Z,101071.09
2023-05-05T19:19:37.253Z,101077.13
2023-05-05T19:22:10.108Z,101068.47
2023-05-05T19:24:45.632Z,101072.78
2023-05-05T19:27:18.177Z,101076.25
2023-05-05T19:29:49.384Z,101063.34
2023-05-05T19:32:23.896Z,101061.56
2023-05-05T19:34:54.861Z,101067.63
2023-05-05T19:37:43.626Z,101077.94
2023-05-05T19:40:27.178Z,101083.13
2023-05-05T19:43:01.676Z,101053.84
2023-05-05T19:45:39.152Z,101049.56
2023-05-05T19:48:20.468Z,101083.13
2023-05-05T19:50:52.167Z,101056.44
2023-05-05T19:53:20.285Z,101065.91
2023-05-05T19:55:50.432Z,101095.16
2023-05-05T19:58:22.368Z,101073.66
2023-05-05T20:00:53.034Z,101067.63
2023-05-05T20:03:23.601Z,101071.06
2023-05-05T20:05:53.926Z,101067.66
2023-05-05T20:08:22.278Z,101059.91
2023-05-05T20:10:51.466Z,101071.06
2023-05-05T20:13:19.629Z,101072.78
2023-05-05T20:15:51.490Z,101071.09
2023-05-05T20:18:22.364Z,101070.22
2023-05-05T20:20:54.239Z,101067.59
2023-05-05T20:23:30.502Z,101026.22
2023-05-05T20:26:04.714Z,101070.13
2023-05-05T20:28:45.338Z,101075.28
2023-05-05T20:31:16.608Z,101057.22
2023-05-05T20:33:54.846Z,101089.91
2023-05-05T20:36:32.296Z,101074.41
2023-05-05T20:39:00.409Z,101063.22
2023-05-05T20:41:28.788Z,101076.97
2023-05-05T20:44:06.291Z,101066.63
2023-05-05T20:47:04.504Z,101034.75
2023-05-05T20:49:37.761Z,101075.22
2023-05-05T20:52:16.320Z,101026.09
2023-05-05T20:54:47.681Z,101070.94
2023-05-05T20:57:17.300Z,101027.84
2023-05-05T20:59:57.067Z,101070.06
2023-05-05T21:02:27.221Z,101076.09
2023-05-05T21:04:58.538Z,101040.78
2023-05-05T21:07:29.265Z,101060.53
2023-05-05T21:09:59.325Z,101070.03
2023-05-05T21:12:32.408Z,101058.88
2023-05-05T21:15:02.639Z,101078.63
2023-05-05T21:17:32.402Z,101081.22
2023-05-05T21:20:05.241Z,101042.47
2023-05-05T21:22:37.172Z,101061.41
2023-05-05T21:25:17.443Z,101072.56
2023-05-05T21:27:46.101Z,101073.41
2023-05-05T21:30:16.184Z,101083.72
2023-05-05T21:32:51.957Z,101082.84
2023-05-05T21:35:27.786Z,101082.84
2023-05-05T21:38:02.317Z,101013.94
2023-05-05T21:40:43.778Z,101078.56
2023-05-05T21:43:13.105Z,101029.44
2023-05-05T21:45:46.105Z,101067.34
2023-05-05T21:48:14.455Z,101070.78
2023-05-05T21:50:43.199Z,101079.44
2023-05-05T21:53:18.331Z,101058.75
2023-05-05T21:55:51.796Z,101083.69
2023-05-05T21:58:20.532Z,101071.63
2023-05-05T22:00:52.437Z,101092.31
2023-05-05T22:03:24.509Z,101079.38
2023-05-05T22:05:53.992Z,101078.50
2023-05-05T22:08:33.963Z,101058.72
2023-05-05T22:11:05.052Z,101058.72
2023-05-05T22:13:37.845Z,101068.16
2023-05-05T22:16:07.334Z,101087.88
2023-05-05T22:18:39.012Z,101066.31
2023-05-05T22:21:08.343Z,101067.97
2023-05-05T22:23:39.431Z,101079.16
2023-05-05T22:26:17.789Z,101067.06
2023-05-05T22:28:52.483Z,101058.44
2023-05-05T22:31:26.948Z,101067.06
2023-05-05T22:33:55.428Z,101059.31
2023-05-05T22:36:26.331Z,101064.47
2023-05-05T22:39:00.750Z,101061.78
2023-05-05T22:41:29.495Z,101028.25
2023-05-05T22:43:58.450Z,101050.63
2023-05-05T22:46:27.418Z,101067.84
2023-05-05T22:49:07.117Z,101067.81
2023-05-05T22:51:36.719Z,101065.22
2023-05-05T22:54:11.397Z,101053.16
2023-05-05T22:56:42.061Z,101069.47
2023-05-05T22:59:14.281Z,101063.41
2023-05-05T23:01:44.134Z,101059.97
2023-05-05T23:04:13.881Z,101056.44
2023-05-05T23:06:45.164Z,101027.94
2023-05-05T23:09:27.459Z,101036.56
2023-05-05T23:11:56.696Z,101008.09
2023-05-05T23:14:25.001Z,101063.25
2023-05-05T23:16:53.588Z,101057.13
2023-05-05T23:19:29.132Z,101048.47
2023-05-05T23:22:01.034Z,101056.22
2023-05-05T23:24:34.943Z,101063.94
2023-05-05T23:27:12.046Z,101066.53
2023-05-05T23:29:44.715Z,101057.03
2023-05-05T23:32:13.183Z,101060.47
2023-05-05T23:34:41.571Z,101058.72
2023-05-05T23:37:10.125Z,101060.44
2023-05-05T23:39:42.063Z,101050.09
2023-05-05T23:42:10.478Z,101040.66
2023-05-05T23:44:39.069Z,101034.47
2023-05-05T23:47:10.612Z,101055.09
2023-05-05T23:49:41.772Z,101043.81
2023-05-05T23:52:10.863Z,101056.69
2023-05-05T23:54:40.375Z,101059.22
2023-05-05T23:57:08.718Z,101056.56
2023-05-05T23:59:37.493Z,101053.91
